Metz-Nancy-Lorraine Airport

Airport
ICAO code: 
LFJL
IATA Code: 
ETZ
Summary
ICAO Region: 
EUR
Territory: 
Location: 
, Lorraine
Serving: 
Metz
Elevation: 
870 ft
Coordinates: 
Aerial View: 
48° 58' 55.711" N, 6° 15' 4.748" E
Metar
Observation
LFJL 240630Z AUTO 10003KT 070V130 CAVOK M01/M02 Q1031 NOSIG
Station
Metz-Nancy-Lorraine
Date/Time
2022-01-24 06:30:00
Wind direction
100°
Wind speed
03 kts
Lowest cloud amount
clouds and visibility OK
Temperature
-1°C
Dew point
-2°C
Humidity
92%
QNH
1031 hPa
Weather condition
n/a

Runways

Designator Length Width Surface Rops
4/22 2500 45 ASP Yes/Yes
Airport map: 
Aerial View: 

SKYbrary Partners:

Safety knowledge contributed by: